Time;durP1;ratioP1;P1;durP2;ratioP2;P2;SDS_P1;SDS_P2;PMS_P1;PMS_P2;Temp;Humidity;BMP_temperature;BMP_pressure;BME280_temperature;BME280_humidity;BME280_pressure;Samples;Min_cycle;Max_cycle;Signal;HPM_P1;HPM_P2
2024/03/29 00:00:24;;;;;;;;;;;;;;;;;;5045933;28;20385;-66
2024/03/29 00:02:49;;;;;;;;;;;;;;;;;;5037936;28;19928;-65
2024/03/29 00:05:14;;;;;;;;;;;;;;;;;;5042533;28;19920;-66
2024/03/29 00:07:39;;;;;;;;;;;;;;;;;;5037555;28;20562;-65
2024/03/29 00:10:04;;;;;;;;;;;;;;;;;;5035817;28;19921;-65
2024/03/29 00:12:30;;;;;;;;;;;;;;;;;;5042920;28;19924;-66
2024/03/29 00:14:56;;;;;;;;;;;;;;;;;;5043119;28;20114;-66
2024/03/29 00:17:21;;;;;;;;;;;;;;;;;;5041381;28;19925;-65
2024/03/29 00:19:46;;;;;;;;;;;;;;;;;;5039464;28;20341;-65
2024/03/29 00:22:11;;;;;;;;;;;;;;;;;;5040331;28;19921;-67
2024/03/29 00:24:36;;;;;;;;;;;;;;;;;;5041401;28;19932;-65
2024/03/29 00:27:02;;;;;;;;;;;;;;;;;;5048164;28;19960;-67
2024/03/29 00:29:27;;;;;;;;;;;;;;;;;;5030082;28;20585;-66
2024/03/29 00:31:53;;;;;;;;;;;;;;;;;;5032070;28;20461;-66
2024/03/29 00:34:18;;;;;;;;;;;;;;;;;;5041148;28;19925;-66
2024/03/29 00:36:43;;;;;;;;;;;;;;;;;;5037938;28;19935;-66
2024/03/29 00:39:11;;;;;;;;;;;;;;;;;;5050147;28;19927;-66
2024/03/29 00:41:36;;;;;;;;;;;;;;;;;;5044278;28;19925;-66
2024/03/29 00:44:01;;;;;;;;;;;;;;;;;;5036524;28;19931;-67
2024/03/29 00:46:26;;;;;;;;;;;;;;;;;;5037301;28;19924;-67
2024/03/29 00:48:52;;;;;;;;;;;;;;;;;;5039272;28;19991;-66
2024/03/29 00:51:17;;;;;;;;;;;;;;;;;;5040252;28;19928;-66
2024/03/29 00:53:42;;;;;;;;;;;;;;;;;;5044694;28;20448;-66
2024/03/29 00:56:07;;;;;;;;;;;;;;;;;;5038363;28;19964;-67
2024/03/29 00:58:32;;;;;;;;;;;;;;;;;;5051168;28;20125;-67
2024/03/29 01:00:57;;;;;;;;;;;;;;;;;;5043760;28;19932;-67
2024/03/29 01:03:22;;;;;;;;;;;;;;;;;;5033657;28;20512;-67
2024/03/29 01:05:48;;;;;;;;;;;;;;;;;;5033951;28;19925;-67
2024/03/29 01:08:13;;;;;;;;;;;;;;;;;;5036439;28;20337;-67
2024/03/29 01:10:38;;;;;;;;;;;;;;;;;;5044488;28;20348;-67
2024/03/29 01:13:03;;;;;;;;;;;;;;;;;;5032076;28;20171;-67
2024/03/29 01:15:28;;;;;;;;;;;;;;;;;;5037809;28;19932;-67
2024/03/29 01:17:54;;;;;;;;;;;;;;;;;;5040755;28;19925;-67
2024/03/29 01:20:19;;;;;;;;;;;;;;;;;;5041488;28;19963;-67
2024/03/29 01:22:44;;;;;;;;;;;;;;;;;;5036306;28;20087;-67
2024/03/29 01:25:11;;;;;;;;;;;;;;;;;;5045451;28;20369;-67
2024/03/29 01:27:36;;;;;;;;;;;;;;;;;;5037761;28;20386;-67
2024/03/29 01:30:02;;;;;;;;;;;;;;;;;;5033486;28;20392;-67
2024/03/29 01:32:27;;;;;;;;;;;;;;;;;;5032250;28;19920;-67
2024/03/29 01:34:52;;;;;;;;;;;;;;;;;;5034264;28;19925;-67
2024/03/29 01:37:17;;;;;;;;;;;;;;;;;;5041928;28;19921;-67
2024/03/29 01:39:42;;;;;;;;;;;;;;;;;;5043548;28;19921;-67
2024/03/29 01:42:09;;;;;;;;;;;;;;;;;;5039900;28;21273;-67
2024/03/29 01:44:34;;;;;;;;;;;;;;;;;;5034604;28;19920;-67
2024/03/29 01:46:59;;;;;;;;;;;;;;;;;;5034807;28;20372;-66
2024/03/29 01:49:24;;;;;;;;;;;;;;;;;;5039095;28;19927;-67
2024/03/29 01:51:49;;;;;;;;;;;;;;;;;;5039315;28;20115;-67
2024/03/29 01:54:14;;;;;;;;;;;;;;;;;;5045867;28;19924;-67
2024/03/29 01:56:39;;;;;;;;;;;;;;;;;;5038356;28;19920;-67
2024/03/29 01:59:05;;;;;;;;;;;;;;;;;;5037655;28;20071;-67
2024/03/29 02:01:30;;;;;;;;;;;;;;;;;;5038673;28;19920;-67
2024/03/29 02:03:55;;;;;;;;;;;;;;;;;;5050540;28;19931;-67
2024/03/29 02:06:20;;;;;;;;;;;;;;;;;;5033423;28;19948;-67
2024/03/29 02:08:45;;;;;;;;;;;;;;;;;;5042150;28;19921;-67
2024/03/29 02:11:10;;;;;;;;;;;;;;;;;;5043123;28;19921;-67
2024/03/29 02:13:37;;;;;;;;;;;;;;;;;;5041162;28;19932;-67
2024/03/29 02:16:02;;;;;;;;;;;;;;;;;;5044472;28;19974;-67
2024/03/29 02:18:27;;;;;;;;;;;;;;;;;;5036610;28;19938;-67
2024/03/29 02:20:52;;;;;;;;;;;;;;;;;;5030915;28;19943;-67
2024/03/29 02:23:17;;;;;;;;;;;;;;;;;;5033902;28;20441;-67
2024/03/29 02:25:42;;;;;;;;;;;;;;;;;;5034379;28;19920;-67
2024/03/29 02:28:07;;;;;;;;;;;;;;;;;;5049606;28;19927;-67
2024/03/29 02:30:32;;;;;;;;;;;;;;;;;;5041831;28;19917;-67
2024/03/29 02:32:57;;;;;;;;;;;;;;;;;;5045491;28;19921;-67
2024/03/29 02:35:23;;;;;;;;;;;;;;;;;;5040663;28;20960;-67
2024/03/29 02:37:48;;;;;;;;;;;;;;;;;;5039257;28;19921;-67
2024/03/29 02:40:13;;;;;;;;;;;;;;;;;;5040410;28;19950;-67
2024/03/29 02:42:38;;;;;;;;;;;;;;;;;;5040316;28;20348;-67
2024/03/29 02:45:03;;;;;;;;;;;;;;;;;;5045894;28;20388;-67
2024/03/29 02:47:28;;;;;;;;;;;;;;;;;;5043001;28;20397;-67
2024/03/29 02:49:53;;;;;;;;;;;;;;;;;;5038851;28;19921;-67
2024/03/29 02:52:18;;;;;;;;;;;;;;;;;;5040269;28;19921;-67
2024/03/29 02:54:43;;;;;;;;;;;;;;;;;;5047869;28;20321;-67
2024/03/29 02:57:08;;;;;;;;;;;;;;;;;;5059385;28;19967;-67
2024/03/29 02:59:34;;;;;;;;;;;;;;;;;;5048526;28;19925;-66
2024/03/29 03:01:59;;;;;;;;;;;;;;;;;;5045446;28;20199;-67
2024/03/29 03:04:24;;;;;;;;;;;;;;;;;;5040858;28;20180;-67
2024/03/29 03:06:49;;;;;;;;;;;;;;;;;;5037094;28;20285;-67
2024/03/29 03:11:59;;;;;;;;;;;;;;;;;;5038419;28;19970;-67
2024/03/29 03:14:24;;;;;;;;;;;;;;;;;;5042483;28;20296;-67
2024/03/29 03:16:49;;;;;;;;;;;;;;;;;;5034122;28;19921;-67
2024/03/29 03:19:14;;;;;;;;;;;;;;;;;;5038580;28;20404;-67
2024/03/29 03:21:39;;;;;;;;;;;;;;;;;;5043248;28;19920;-67
2024/03/29 03:24:04;;;;;;;;;;;;;;;;;;5040694;28;19921;-67
2024/03/29 03:26:29;;;;;;;;;;;;;;;;;;5048333;28;19921;-67
2024/03/29 03:28:55;;;;;;;;;;;;;;;;;;5043422;28;19925;-67
2024/03/29 03:31:20;;;;;;;;;;;;;;;;;;5046615;28;19920;-67
2024/03/29 03:33:45;;;;;;;;;;;;;;;;;;5040460;28;19972;-67
2024/03/29 03:36:10;;;;;;;;;;;;;;;;;;5046222;28;20015;-67
2024/03/29 03:38:36;;;;;;;;;;;;;;;;;;5046466;28;19927;-67
2024/03/29 03:41:01;;;;;;;;;;;;;;;;;;5044476;28;19960;-67
2024/03/29 03:43:27;;;;;;;;;;;;;;;;;;5042324;28;19968;-67
2024/03/29 03:45:53;;;;;;;;;;;;;;;;;;5037629;28;20019;-67
2024/03/29 03:48:18;;;;;;;;;;;;;;;;;;5034416;28;19921;-67
2024/03/29 03:50:43;;;;;;;;;;;;;;;;;;5042720;28;19929;-65
2024/03/29 03:53:08;;;;;;;;;;;;;;;;;;5039556;28;20314;-67
2024/03/29 03:55:33;;;;;;;;;;;;;;;;;;5047610;28;19975;-67
2024/03/29 03:57:58;;;;;;;;;;;;;;;;;;5036621;28;19933;-67
2024/03/29 04:00:23;;;;;;;;;;;;;;;;;;5040744;28;19925;-67
2024/03/29 04:02:49;;;;;;;;;;;;;;;;;;5034666;28;20409;-67
2024/03/29 04:05:14;;;;;;;;;;;;;;;;;;5041135;28;19935;-66
2024/03/29 04:07:39;;;;;;;;;;;;;;;;;;5039380;28;19931;-67
2024/03/29 04:10:04;;;;;;;;;;;;;;;;;;5045716;28;19983;-67
2024/03/29 04:12:29;;;;;;;;;;;;;;;;;;5040419;28;19927;-67
2024/03/29 04:14:54;;;;;;;;;;;;;;;;;;5043456;28;19929;-67
2024/03/29 04:17:19;;;;;;;;;;;;;;;;;;5043230;28;19932;-67
2024/03/29 04:19:44;;;;;;;;;;;;;;;;;;5046685;28;19921;-67
2024/03/29 04:22:09;;;;;;;;;;;;;;;;;;5046333;28;19928;-68
2024/03/29 04:24:35;;;;;;;;;;;;;;;;;;5044722;28;19951;-67
2024/03/29 04:27:00;;;;;;;;;;;;;;;;;;5040271;28;20012;-67
2024/03/29 04:29:25;;;;;;;;;;;;;;;;;;5040491;28;20252;-66
2024/03/29 04:31:50;;;;;;;;;;;;;;;;;;5038263;28;19921;-67
2024/03/29 04:34:15;;;;;;;;;;;;;;;;;;5038222;28;19991;-66
2024/03/29 04:36:40;;;;;;;;;;;;;;;;;;5033924;28;20362;-66
2024/03/29 04:39:06;;;;;;;;;;;;;;;;;;5035096;28;19963;-66
2024/03/29 04:41:34;;;;;;;;;;;;;;;;;;5035917;28;19925;-66
2024/03/29 04:43:59;;;;;;;;;;;;;;;;;;5044663;28;19924;-67
2024/03/29 04:46:24;;;;;;;;;;;;;;;;;;5047471;28;19921;-66
2024/03/29 04:48:49;;;;;;;;;;;;;;;;;;5038682;28;19929;-67
2024/03/29 04:51:14;;;;;;;;;;;;;;;;;;5046183;28;19920;-67
2024/03/29 04:53:39;;;;;;;;;;;;;;;;;;5038714;28;20043;-67
2024/03/29 04:56:04;;;;;;;;;;;;;;;;;;5042089;28;19927;-67
2024/03/29 04:58:29;;;;;;;;;;;;;;;;;;5042145;28;19925;-67
2024/03/29 05:00:55;;;;;;;;;;;;;;;;;;5046631;28;20328;-67
2024/03/29 05:03:20;;;;;;;;;;;;;;;;;;5038018;28;19960;-67
2024/03/29 05:05:45;;;;;;;;;;;;;;;;;;5038124;28;19929;-67
2024/03/29 05:08:10;;;;;;;;;;;;;;;;;;5041201;28;20041;-67
2024/03/29 05:10:35;;;;;;;;;;;;;;;;;;5038858;28;20366;-67
2024/03/29 05:13:01;;;;;;;;;;;;;;;;;;5044078;28;19920;-67
2024/03/29 05:15:26;;;;;;;;;;;;;;;;;;5034027;28;19929;-66
2024/03/29 05:17:51;;;;;;;;;;;;;;;;;;5040341;28;20497;-67
2024/03/29 05:20:16;;;;;;;;;;;;;;;;;;5039278;28;20452;-66
2024/03/29 05:22:41;;;;;;;;;;;;;;;;;;5042141;28;19927;-66
2024/03/29 05:25:07;;;;;;;;;;;;;;;;;;5039987;28;19929;-67
2024/03/29 05:27:32;;;;;;;;;;;;;;;;;;5037617;28;19927;-67
2024/03/29 05:29:57;;;;;;;;;;;;;;;;;;5037501;28;19921;-67
2024/03/29 05:32:23;;;;;;;;;;;;;;;;;;5040161;28;19924;-66
2024/03/29 05:34:48;;;;;;;;;;;;;;;;;;5050999;28;20006;-67
2024/03/29 05:37:15;;;;;;;;;;;;;;;;;;5046627;28;19927;-66
2024/03/29 05:39:41;;;;;;;;;;;;;;;;;;5037612;28;19928;-67
2024/03/29 05:42:06;;;;;;;;;;;;;;;;;;5035674;28;19920;-66
2024/03/29 05:44:31;;;;;;;;;;;;;;;;;;5033159;28;19951;-67
2024/03/29 05:46:56;;;;;;;;;;;;;;;;;;5041025;28;20011;-67
2024/03/29 05:49:21;;;;;;;;;;;;;;;;;;5038566;28;19921;-67
2024/03/29 05:51:46;;;;;;;;;;;;;;;;;;5035840;28;19978;-67
2024/03/29 05:54:11;;;;;;;;;;;;;;;;;;5038939;28;19925;-67
2024/03/29 05:56:36;;;;;;;;;;;;;;;;;;5041998;28;19924;-67
2024/03/29 05:59:01;;;;;;;;;;;;;;;;;;5040960;28;20408;-67
2024/03/29 06:01:26;;;;;;;;;;;;;;;;;;5041922;28;19927;-67
2024/03/29 06:03:54;;;;;;;;;;;;;;;;;;5036345;28;20374;-67
2024/03/29 06:06:23;;;;;;;;;;;;;;;;;;5038523;28;19975;-67
2024/03/29 06:08:48;;;;;;;;;;;;;;;;;;5038788;28;20321;-67
2024/03/29 06:11:13;;;;;;;;;;;;;;;;;;5042910;28;20413;-67
2024/03/29 06:19:03;;;;;;;;;;;;;;;;;;5040893;28;21077;-67
2024/03/29 06:21:28;;;;;;;;;;;;;;;;;;5041417;28;20031;-66
2024/03/29 06:23:53;;;;;;;;;;;;;;;;;;5038214;28;20414;-67
2024/03/29 06:26:18;;;;;;;;;;;;;;;;;;5038208;28;19925;-67
2024/03/29 06:28:43;;;;;;;;;;;;;;;;;;5037904;28;19917;-66
2024/03/29 06:31:08;;;;;;;;;;;;;;;;;;5039423;28;19927;-67
2024/03/29 06:33:33;;;;;;;;;;;;;;;;;;5035778;28;19925;-67
2024/03/29 06:35:58;;;;;;;;;;;;;;;;;;5038208;28;20000;-67
2024/03/29 06:38:24;;;;;;;;;;;;;;;;;;5039804;28;19925;-66
2024/03/29 06:40:49;;;;;;;;;;;;;;;;;;5032922;28;19929;-67
2024/03/29 06:43:14;;;;;;;;;;;;;;;;;;5032955;28;19927;-67
2024/03/29 06:45:39;;;;;;;;;;;;;;;;;;5031924;28;19959;-66
2024/03/29 06:48:04;;;;;;;;;;;;;;;;;;5028358;28;20304;-67
2024/03/29 06:50:29;;;;;;;;;;;;;;;;;;5044589;28;19928;-67
2024/03/29 06:52:55;;;;;;;;;;;;;;;;;;5043150;28;19925;-67
2024/03/29 06:55:20;;;;;;;;;;;;;;;;;;5042690;28;19991;-66
2024/03/29 06:57:45;;;;;;;;;;;;;;;;;;5037568;28;19978;-67
2024/03/29 07:00:10;;;;;;;;;;;;;;;;;;5039930;28;19928;-67
2024/03/29 07:02:35;;;;;;;;;;;;;;;;;;5042751;28;20436;-67
2024/03/29 07:05:07;;;;;;;;;;;;;;;;;;5041266;28;20008;-67
2024/03/29 07:07:32;;;;;;;;;;;;;;;;;;5040715;28;20403;-66
2024/03/29 07:09:57;;;;;;;;;;;;;;;;;;5042254;28;20453;-67
2024/03/29 07:12:22;;;;;;;;;;;;;;;;;;5042559;28;19929;-67
2024/03/29 07:14:47;;;;;;;;;;;;;;;;;;5043777;28;20166;-67
2024/03/29 07:17:12;;;;;;;;;;;;;;;;;;5044479;28;19946;-67
2024/03/29 07:19:37;;;;;;;;;;;;;;;;;;5039105;28;19925;-67
2024/03/29 07:22:03;;;;;;;;;;;;;;;;;;5047516;28;19989;-67
2024/03/29 07:24:28;;;;;;;;;;;;;;;;;;5048060;28;19935;-67
2024/03/29 07:26:53;;;;;;;;;;;;;;;;;;5046844;28;20357;-67
2024/03/29 07:29:18;;;;;;;;;;;;;;;;;;5039778;28;19921;-67
2024/03/29 07:31:43;;;;;;;;;;;;;;;;;;5045377;28;19920;-67
2024/03/29 07:34:10;;;;;;;;;;;;;;;;;;5046198;28;19932;-67
2024/03/29 07:36:35;;;;;;;;;;;;;;;;;;5036166;28;19975;-67
2024/03/29 07:39:00;;;;;;;;;;;;;;;;;;5045046;28;20264;-67
2024/03/29 07:41:25;;;;;;;;;;;;;;;;;;5035971;28;19977;-67
2024/03/29 07:43:50;;;;;;;;;;;;;;;;;;5044268;28;19964;-67
2024/03/29 07:46:16;;;;;;;;;;;;;;;;;;5045892;28;19928;-67
2024/03/29 07:48:41;;;;;;;;;;;;;;;;;;5045773;28;19936;-67
2024/03/29 07:51:06;;;;;;;;;;;;;;;;;;5040019;28;20277;-67
2024/03/29 07:53:31;;;;;;;;;;;;;;;;;;5041663;28;19959;-67
2024/03/29 07:55:57;;;;;;;;;;;;;;;;;;5038362;28;20051;-67
2024/03/29 07:58:22;;;;;;;;;;;;;;;;;;5044388;28;19947;-67
2024/03/29 08:00:47;;;;;;;;;;;;;;;;;;5042257;28;19927;-67
2024/03/29 08:03:12;;;;;;;;;;;;;;;;;;5045843;28;20002;-67
2024/03/29 08:05:37;;;;;;;;;;;;;;;;;;5042105;28;19921;-67
2024/03/29 08:08:03;;;;;;;;;;;;;;;;;;5047234;28;19921;-67
2024/03/29 08:10:28;;;;;;;;;;;;;;;;;;5047938;28;19921;-67
2024/03/29 08:12:53;;;;;;;;;;;;;;;;;;5048465;28;20356;-67
2024/03/29 08:15:19;;;;;;;;;;;;;;;;;;5041301;28;19990;-67
2024/03/29 08:17:45;;;;;;;;;;;;;;;;;;5056784;28;19925;-67
2024/03/29 08:20:10;;;;;;;;;;;;;;;;;;5045407;28;20027;-67
2024/03/29 08:22:35;;;;;;;;;;;;;;;;;;5042970;28;19974;-67
2024/03/29 08:25:00;;;;;;;;;;;;;;;;;;5045304;28;19921;-67
2024/03/29 08:27:26;;;;;;;;;;;;;;;;;;5041315;28;20283;-67
2024/03/29 08:29:51;;;;;;;;;;;;;;;;;;5042814;28;19925;-66
2024/03/29 08:32:16;;;;;;;;;;;;;;;;;;5041846;28;19925;-67
2024/03/29 08:34:41;;;;;;;;;;;;;;;;;;5037245;28;19929;-67
2024/03/29 08:37:07;;;;;;;;;;;;;;;;;;5036110;28;19936;-67
2024/03/29 08:39:32;;;;;;;;;;;;;;;;;;5043900;28;19940;-66
2024/03/29 08:41:57;;;;;;;;;;;;;;;;;;5039326;28;19923;-67
2024/03/29 08:44:23;;;;;;;;;;;;;;;;;;5043879;28;19929;-67
2024/03/29 08:46:48;;;;;;;;;;;;;;;;;;5042302;28;19962;-67
2024/03/29 08:49:13;;;;;;;;;;;;;;;;;;5030754;28;19928;-67
2024/03/29 08:51:38;;;;;;;;;;;;;;;;;;5035502;28;19925;-67
2024/03/29 08:54:05;;;;;;;;;;;;;;;;;;5036660;28;19926;-66
2024/03/29 08:56:30;;;;;;;;;;;;;;;;;;5043029;28;19921;-66
2024/03/29 08:58:55;;;;;;;;;;;;;;;;;;5044025;28;19932;-66
2024/03/29 09:01:20;;;;;;;;;;;;;;;;;;5046960;28;20289;-67
2024/03/29 09:03:45;;;;;;;;;;;;;;;;;;5035194;28;20400;-67
2024/03/29 09:06:10;;;;;;;;;;;;;;;;;;5040472;28;19924;-67
2024/03/29 09:08:35;;;;;;;;;;;;;;;;;;5040893;28;20407;-67
2024/03/29 09:11:03;;;;;;;;;;;;;;;;;;5045381;28;20067;-67
2024/03/29 09:13:28;;;;;;;;;;;;;;;;;;5031958;28;19925;-66
2024/03/29 09:15:53;;;;;;;;;;;;;;;;;;5035942;28;19963;-67
2024/03/29 09:18:26;;;;;;;;;;;;;;;;;;5041005;28;19964;-67
2024/03/29 09:20:51;;;;;;;;;;;;;;;;;;5039389;28;20337;-67
2024/03/29 09:23:20;;;;;;;;;;;;;;;;;;5045255;28;20352;-67
2024/03/29 09:25:45;;;;;;;;;;;;;;;;;;5040441;28;19975;-67
2024/03/29 09:28:10;;;;;;;;;;;;;;;;;;5031805;28;19929;-67
2024/03/29 09:30:35;;;;;;;;;;;;;;;;;;5040521;28;19921;-68
2024/03/29 09:33:02;;;;;;;;;;;;;;;;;;5039893;28;19925;-68
2024/03/29 09:35:28;;;;;;;;;;;;;;;;;;5044931;28;19959;-68
2024/03/29 09:37:53;;;;;;;;;;;;;;;;;;5039811;28;19968;-68
2024/03/29 09:40:18;;;;;;;;;;;;;;;;;;5042876;28;20000;-68
2024/03/29 09:42:43;;;;;;;;;;;;;;;;;;5039020;28;19925;-68
2024/03/29 09:45:08;;;;;;;;;;;;;;;;;;5036724;28;19921;-68
2024/03/29 09:47:33;;;;;;;;;;;;;;;;;;5036538;28;19964;-68
2024/03/29 09:49:59;;;;;;;;;;;;;;;;;;5033318;28;19921;-68
2024/03/29 09:52:24;;;;;;;;;;;;;;;;;;5037021;28;20404;-68
2024/03/29 09:54:49;;;;;;;;;;;;;;;;;;5040058;28;19929;-68
2024/03/29 09:57:14;;;;;;;;;;;;;;;;;;5037878;28;19983;-68
2024/03/29 09:59:39;;;;;;;;;;;;;;;;;;5045518;28;19996;-68
2024/03/29 10:02:04;;;;;;;;;;;;;;;;;;5038868;28;19921;-70
2024/03/29 10:04:30;;;;;;;;;;;;;;;;;;5036072;28;20008;-68
2024/03/29 10:06:55;;;;;;;;;;;;;;;;;;5041486;28;19959;-69
2024/03/29 10:09:20;;;;;;;;;;;;;;;;;;5037131;28;19928;-68
2024/03/29 10:11:45;;;;;;;;;;;;;;;;;;5038953;28;19936;-68
2024/03/29 10:14:10;;;;;;;;;;;;;;;;;;5043557;28;20164;-69
2024/03/29 10:16:35;;;;;;;;;;;;;;;;;;5041567;28;19932;-68
2024/03/29 10:19:00;;;;;;;;;;;;;;;;;;5032074;28;20323;-68
2024/03/29 10:21:28;;;;;;;;;;;;;;;;;;5034308;28;20290;-68
2024/03/29 10:23:53;;;;;;;;;;;;;;;;;;5034113;28;19948;-68
2024/03/29 10:26:19;;;;;;;;;;;;;;;;;;5044870;28;19925;-68
2024/03/29 10:28:44;;;;;;;;;;;;;;;;;;5043037;28;20546;-68
2024/03/29 10:31:10;;;;;;;;;;;;;;;;;;5036402;28;20275;-69
2024/03/29 10:33:35;;;;;;;;;;;;;;;;;;5037484;28;19921;-68
2024/03/29 10:36:00;;;;;;;;;;;;;;;;;;5056880;28;19948;-68
2024/03/29 10:38:28;;;;;;;;;;;;;;;;;;5033659;28;19925;-68
2024/03/29 10:40:54;;;;;;;;;;;;;;;;;;5041117;28;19925;-68
2024/03/29 10:43:19;;;;;;;;;;;;;;;;;;5044668;28;20305;-69
2024/03/29 10:45:44;;;;;;;;;;;;;;;;;;5037356;28;19947;-69
2024/03/29 10:48:10;;;;;;;;;;;;;;;;;;5041200;28;19952;-68
2024/03/29 10:50:35;;;;;;;;;;;;;;;;;;5038919;28;19924;-69
2024/03/29 10:53:00;;;;;;;;;;;;;;;;;;5044031;28;20337;-69
2024/03/29 10:55:25;;;;;;;;;;;;;;;;;;5041186;28;19951;-69
2024/03/29 10:57:51;;;;;;;;;;;;;;;;;;5044517;28;19925;-68
2024/03/29 11:00:20;;;;;;;;;;;;;;;;;;5044258;28;19963;-68
2024/03/29 11:02:45;;;;;;;;;;;;;;;;;;5042688;28;20440;-69
2024/03/29 11:05:10;;;;;;;;;;;;;;;;;;5041478;28;20305;-69
2024/03/29 11:07:35;;;;;;;;;;;;;;;;;;5043596;28;19925;-69
2024/03/29 11:10:00;;;;;;;;;;;;;;;;;;5043739;28;19920;-68
2024/03/29 11:12:25;;;;;;;;;;;;;;;;;;5042919;28;19920;-68
2024/03/29 11:14:51;;;;;;;;;;;;;;;;;;5038543;28;19925;-68
2024/03/29 11:17:16;;;;;;;;;;;;;;;;;;5045786;28;20304;-69
2024/03/29 11:19:41;;;;;;;;;;;;;;;;;;5040180;28;19925;-68
2024/03/29 11:22:06;;;;;;;;;;;;;;;;;;5040335;28;20405;-69
2024/03/29 11:24:31;;;;;;;;;;;;;;;;;;5041566;28;19940;-68
2024/03/29 11:26:57;;;;;;;;;;;;;;;;;;5039752;28;20331;-69
2024/03/29 11:29:22;;;;;;;;;;;;;;;;;;5039080;28;19947;-68
2024/03/29 11:31:49;;;;;;;;;;;;;;;;;;5038694;28;19917;-68
2024/03/29 11:34:14;;;;;;;;;;;;;;;;;;5048768;28;19990;-68
2024/03/29 11:36:39;;;;;;;;;;;;;;;;;;5034936;28;20008;-68
2024/03/29 11:39:04;;;;;;;;;;;;;;;;;;5037980;28;19925;-68
2024/03/29 11:41:32;;;;;;;;;;;;;;;;;;5040013;28;19921;-69
2024/03/29 11:43:57;;;;;;;;;;;;;;;;;;5033195;28;20396;-68
2024/03/29 11:46:22;;;;;;;;;;;;;;;;;;5039367;28;20392;-69
2024/03/29 11:48:51;;;;;;;;;;;;;;;;;;5033939;28;19917;-68
2024/03/29 11:51:18;;;;;;;;;;;;;;;;;;5037191;28;19924;-69
2024/03/29 11:53:43;;;;;;;;;;;;;;;;;;5037724;28;19956;-68
2024/03/29 11:56:08;;;;;;;;;;;;;;;;;;5044860;28;19921;-69
2024/03/29 11:58:34;;;;;;;;;;;;;;;;;;5040057;28;19944;-69
2024/03/29 12:00:59;;;;;;;;;;;;;;;;;;5042840;28;19928;-66
2024/03/29 12:03:24;;;;;;;;;;;;;;;;;;5044523;28;20356;-68
2024/03/29 12:05:50;;;;;;;;;;;;;;;;;;5039612;28;19920;-69
2024/03/29 12:08:15;;;;;;;;;;;;;;;;;;5035219;28;19921;-68
2024/03/29 12:10:40;;;;;;;;;;;;;;;;;;5042998;28;19927;-68
2024/03/29 12:13:05;;;;;;;;;;;;;;;;;;5043642;28;20011;-68
2024/03/29 12:15:31;;;;;;;;;;;;;;;;;;5043597;28;19936;-68
2024/03/29 12:17:56;;;;;;;;;;;;;;;;;;5038159;28;20439;-68
2024/03/29 12:20:21;;;;;;;;;;;;;;;;;;5035999;28;19928;-68
2024/03/29 12:22:46;;;;;;;;;;;;;;;;;;5043549;28;19925;-68
2024/03/29 12:25:11;;;;;;;;;;;;;;;;;;5042460;28;19921;-68
2024/03/29 12:27:36;;;;;;;;;;;;;;;;;;5047802;28;20325;-69
2024/03/29 12:30:01;;;;;;;;;;;;;;;;;;5035804;28;19975;-69
2024/03/29 12:32:27;;;;;;;;;;;;;;;;;;5036850;28;20416;-69
2024/03/29 12:34:53;;;;;;;;;;;;;;;;;;5040594;28;19935;-69
2024/03/29 12:37:18;;;;;;;;;;;;;;;;;;5034028;28;20381;-69
2024/03/29 12:39:45;;;;;;;;;;;;;;;;;;5038237;28;19948;-69
2024/03/29 12:42:10;;;;;;;;;;;;;;;;;;5036135;28;19928;-70
2024/03/29 12:44:35;;;;;;;;;;;;;;;;;;5037627;28;20278;-69
2024/03/29 12:47:01;;;;;;;;;;;;;;;;;;5035384;28;20309;-69
2024/03/29 12:49:26;;;;;;;;;;;;;;;;;;5036460;28;19960;-69
2024/03/29 12:51:51;;;;;;;;;;;;;;;;;;5039083;28;20129;-69
2024/03/29 12:54:18;;;;;;;;;;;;;;;;;;5048927;28;19936;-70
2024/03/29 12:56:43;;;;;;;;;;;;;;;;;;5037679;28;19921;-69
2024/03/29 12:59:08;;;;;;;;;;;;;;;;;;5039414;28;19928;-69
2024/03/29 13:01:33;;;;;;;;;;;;;;;;;;5044248;28;19925;-69
2024/03/29 13:03:58;;;;;;;;;;;;;;;;;;5045097;28;19928;-69
2024/03/29 13:06:23;;;;;;;;;;;;;;;;;;5033394;28;19980;-69
2024/03/29 13:08:49;;;;;;;;;;;;;;;;;;5039511;28;20275;-69
2024/03/29 13:11:14;;;;;;;;;;;;;;;;;;5036881;28;19929;-69
2024/03/29 13:13:39;;;;;;;;;;;;;;;;;;5036271;28;20028;-69
2024/03/29 13:16:05;;;;;;;;;;;;;;;;;;5056044;28;20015;-69
2024/03/29 13:18:30;;;;;;;;;;;;;;;;;;5044892;28;20381;-69
2024/03/29 13:20:56;;;;;;;;;;;;;;;;;;5042136;28;19975;-69
2024/03/29 13:23:21;;;;;;;;;;;;;;;;;;5047206;28;20276;-69
2024/03/29 13:25:47;;;;;;;;;;;;;;;;;;5037968;28;19959;-69
2024/03/29 13:28:12;;;;;;;;;;;;;;;;;;5035866;28;20015;-69
2024/03/29 13:30:43;;;;;;;;;;;;;;;;;;5038760;28;19928;-69
2024/03/29 13:33:09;;;;;;;;;;;;;;;;;;5043479;28;20344;-69
2024/03/29 13:35:35;;;;;;;;;;;;;;;;;;5038081;28;19960;-69
2024/03/29 13:38:00;;;;;;;;;;;;;;;;;;5037391;28;19964;-69
2024/03/29 13:40:25;;;;;;;;;;;;;;;;;;5042869;28;20349;-69
2024/03/29 13:42:51;;;;;;;;;;;;;;;;;;5032846;28;20001;-69
2024/03/29 13:45:16;;;;;;;;;;;;;;;;;;5038139;28;19982;-69
2024/03/29 13:47:41;;;;;;;;;;;;;;;;;;5037851;28;19939;-69
2024/03/29 13:50:06;;;;;;;;;;;;;;;;;;5035137;28;19931;-70
2024/03/29 13:52:31;;;;;;;;;;;;;;;;;;5034390;28;19925;-69
2024/03/29 13:54:56;;;;;;;;;;;;;;;;;;5041237;28;19925;-69
2024/03/29 13:57:22;;;;;;;;;;;;;;;;;;5031373;28;19989;-69
2024/03/29 13:59:47;;;;;;;;;;;;;;;;;;5040682;28;19927;-69
2024/03/29 14:02:13;;;;;;;;;;;;;;;;;;5041261;28;19929;-69
2024/03/29 14:04:38;;;;;;;;;;;;;;;;;;5034311;28;19929;-69
2024/03/29 14:07:06;;;;;;;;;;;;;;;;;;5043809;28;20582;-69
2024/03/29 14:09:32;;;;;;;;;;;;;;;;;;5036724;28;19921;-69
2024/03/29 14:11:57;;;;;;;;;;;;;;;;;;5034700;28;20313;-69
2024/03/29 14:14:22;;;;;;;;;;;;;;;;;;5054570;28;20013;-69
2024/03/29 14:16:47;;;;;;;;;;;;;;;;;;5034031;28;19963;-69
2024/03/29 14:19:12;;;;;;;;;;;;;;;;;;5043780;28;19957;-69
2024/03/29 14:21:37;;;;;;;;;;;;;;;;;;5040509;28;19921;-69
2024/03/29 14:24:03;;;;;;;;;;;;;;;;;;5046745;28;19920;-70
2024/03/29 14:26:28;;;;;;;;;;;;;;;;;;5037124;28;19921;-69
2024/03/29 14:28:53;;;;;;;;;;;;;;;;;;5039564;28;20367;-69
2024/03/29 14:31:18;;;;;;;;;;;;;;;;;;5039683;28;19921;-69
2024/03/29 14:33:44;;;;;;;;;;;;;;;;;;5044221;28;19921;-69
2024/03/29 14:36:10;;;;;;;;;;;;;;;;;;5041306;28;19929;-69
2024/03/29 14:38:35;;;;;;;;;;;;;;;;;;5032691;28;19921;-69
2024/03/29 14:41:00;;;;;;;;;;;;;;;;;;5046795;28;19943;-69
2024/03/29 14:43:25;;;;;;;;;;;;;;;;;;5044808;28;20401;-69
2024/03/29 14:45:50;;;;;;;;;;;;;;;;;;5042202;28;20322;-69
2024/03/29 14:48:15;;;;;;;;;;;;;;;;;;5041014;28;19920;-69
2024/03/29 14:50:41;;;;;;;;;;;;;;;;;;5044435;28;19928;-69
2024/03/29 14:53:06;;;;;;;;;;;;;;;;;;5049267;28;20327;-69
2024/03/29 14:55:31;;;;;;;;;;;;;;;;;;5035024;28;19963;-69
2024/03/29 14:57:56;;;;;;;;;;;;;;;;;;5039115;28;20581;-69
2024/03/29 15:00:24;;;;;;;;;;;;;;;;;;5039516;28;20163;-69
2024/03/29 15:02:49;;;;;;;;;;;;;;;;;;5043516;28;20326;-71
2024/03/29 15:05:14;;;;;;;;;;;;;;;;;;5040232;28;20333;-70
2024/03/29 15:07:39;;;;;;;;;;;;;;;;;;5050851;28;19983;-70
2024/03/29 15:10:10;;;;;;;;;;;;;;;;;;5043884;28;19921;-70
2024/03/29 15:12:35;;;;;;;;;;;;;;;;;;5035568;28;20047;-71
2024/03/29 15:15:00;;;;;;;;;;;;;;;;;;5050676;28;20368;-70
2024/03/29 15:17:25;;;;;;;;;;;;;;;;;;5068038;28;19923;-71
2024/03/29 15:19:52;;;;;;;;;;;;;;;;;;5049078;28;19928;-70
2024/03/29 15:22:17;;;;;;;;;;;;;;;;;;5042601;28;20011;-70
2024/03/29 15:24:42;;;;;;;;;;;;;;;;;;5048188;28;20271;-69
2024/03/29 15:27:16;;;;;;;;;;;;;;;;;;5042785;28;20404;-69
2024/03/29 15:29:41;;;;;;;;;;;;;;;;;;5039613;28;19921;-70
2024/03/29 15:32:06;;;;;;;;;;;;;;;;;;5055005;28;20195;-71
2024/03/29 15:34:31;;;;;;;;;;;;;;;;;;5037231;28;19967;-70
2024/03/29 15:36:56;;;;;;;;;;;;;;;;;;5039017;28;19925;-71
2024/03/29 15:39:21;;;;;;;;;;;;;;;;;;5038143;28;19921;-68
2024/03/29 15:41:46;;;;;;;;;;;;;;;;;;5033357;28;20381;-69
2024/03/29 15:44:12;;;;;;;;;;;;;;;;;;5032929;28;19929;-68
2024/03/29 15:46:37;;;;;;;;;;;;;;;;;;5037747;28;19928;-68
2024/03/29 15:49:03;;;;;;;;;;;;;;;;;;5042376;28;19928;-69
2024/03/29 15:51:28;;;;;;;;;;;;;;;;;;5036728;28;20407;-70
2024/03/29 15:53:56;;;;;;;;;;;;;;;;;;5040511;28;20451;-71
2024/03/29 15:56:21;;;;;;;;;;;;;;;;;;5035834;28;19928;-73
2024/03/29 15:58:47;;;;;;;;;;;;;;;;;;5045156;28;19928;-71
2024/03/29 16:01:12;;;;;;;;;;;;;;;;;;5039142;28;20014;-70
2024/03/29 16:03:37;;;;;;;;;;;;;;;;;;5042642;28;19921;-70
2024/03/29 16:06:03;;;;;;;;;;;;;;;;;;5043862;28;19927;-71
2024/03/29 16:08:28;;;;;;;;;;;;;;;;;;5040743;28;19928;-70
2024/03/29 16:10:53;;;;;;;;;;;;;;;;;;5038581;28;19985;-71
2024/03/29 16:13:18;;;;;;;;;;;;;;;;;;5040302;28;19987;-73
2024/03/29 16:15:44;;;;;;;;;;;;;;;;;;5041192;28;19933;-71
2024/03/29 16:18:09;;;;;;;;;;;;;;;;;;5035508;28;19929;-70
2024/03/29 16:20:34;;;;;;;;;;;;;;;;;;5034861;28;19995;-70
2024/03/29 16:22:59;;;;;;;;;;;;;;;;;;5038445;28;19933;-70
2024/03/29 16:25:24;;;;;;;;;;;;;;;;;;5042142;28;19931;-71
2024/03/29 16:27:49;;;;;;;;;;;;;;;;;;5031414;28;19927;-71
2024/03/29 16:30:16;;;;;;;;;;;;;;;;;;5032194;28;20056;-71
2024/03/29 16:32:41;;;;;;;;;;;;;;;;;;5033551;28;19921;-66
2024/03/29 16:35:07;;;;;;;;;;;;;;;;;;5036877;28;19925;-66
2024/03/29 16:37:32;;;;;;;;;;;;;;;;;;5040076;28;20562;-66
2024/03/29 16:39:57;;;;;;;;;;;;;;;;;;5035929;28;19925;-68